Terminal Aerodrome Forecast
Issued by NWS Twin Cities, MN

Home | Current Version | Previous Version | Graphics & Text | Print | Product List | Glossary On
Versions: 1 2 3 4 5 6 7 8 9 10 11 12 13 14 15 16 17 18 19 20 21 22 23 24 25 26 27 28 29
000
FTUS43 KMPX 021140
TAFMSP
TAF
KMSP 021140Z 0212/0318 22003KT P6SM SKC
     FM021900 16008KT P6SM SCT250
     FM030000 15012G18KT P6SM SCT060 OVC100
     FM030500 15010KT P6SM VCSH OVC040
     FM031000 14008KT 1 1/2SM -SN BR OVC012=

USA.gov is the U.S. government's official web portal to all federal, state and local government web resources and services.